createdAt,value
2022-07-25T00:01:43.138Z,22.15
2022-07-25T00:04:12.146Z,22.18
2022-07-25T00:06:39.483Z,22.14
2022-07-25T00:09:06.677Z,22.11
2022-07-25T00:11:33.411Z,22.11
2022-07-25T00:14:00.035Z,22.10
2022-07-25T00:16:26.709Z,22.15
2022-07-25T00:18:53.274Z,22.13
2022-07-25T00:21:19.909Z,22.12
2022-07-25T00:23:46.519Z,22.10
2022-07-25T00:26:13.081Z,22.06
2022-07-25T00:28:39.842Z,22.05
2022-07-25T00:31:06.495Z,22.07
2022-07-25T00:33:33.089Z,22.02
2022-07-25T00:35:59.711Z,22.02
2022-07-25T00:38:26.275Z,22.01
2022-07-25T00:40:54.215Z,22.02
2022-07-25T00:43:22.037Z,22.01
2022-07-25T00:45:48.574Z,22.00
2022-07-25T00:48:15.128Z,21.93
2022-07-25T00:50:41.932Z,21.90
2022-07-25T00:53:08.461Z,21.84
2022-07-25T00:55:35.166Z,21.85
2022-07-25T00:58:01.872Z,21.81
2022-07-25T01:00:28.473Z,21.75
2022-07-25T01:02:55.321Z,21.78
2022-07-25T01:05:21.907Z,21.78
2022-07-25T01:07:49.167Z,21.78
2022-07-25T01:10:15.745Z,21.79
2022-07-25T01:12:55.655Z,21.79
2022-07-25T01:15:23.711Z,21.81
2022-07-25T01:17:50.656Z,21.85
2022-07-25T01:20:19.078Z,21.87
2022-07-25T01:22:46.022Z,21.86
2022-07-25T01:25:13.525Z,21.86
2022-07-25T01:27:41.220Z,21.80
2022-07-25T01:30:10.168Z,21.75
2022-07-25T01:32:37.097Z,21.72
2022-07-25T01:35:04.928Z,21.70
2022-07-25T01:37:31.778Z,21.73
2022-07-25T01:42:37.399Z,21.70
2022-07-25T01:45:05.202Z,21.73
2022-07-25T01:47:31.912Z,21.75
2022-07-25T01:49:58.433Z,21.73
2022-07-25T01:52:25.032Z,21.70
2022-07-25T01:54:51.563Z,21.69
2022-07-25T01:57:18.100Z,21.72
2022-07-25T01:59:57.610Z,21.72
2022-07-25T02:02:24.695Z,21.70
2022-07-25T02:04:51.318Z,21.69
2022-07-25T02:07:18.035Z,21.63
2022-07-25T02:09:44.584Z,21.59
2022-07-25T02:12:11.170Z,21.57
2022-07-25T02:14:37.945Z,21.60
2022-07-25T02:17:05.104Z,21.54
2022-07-25T02:19:31.670Z,21.55
2022-07-25T02:21:58.353Z,21.52
2022-07-25T02:24:25.025Z,21.51
2022-07-25T02:26:51.725Z,21.52
2022-07-25T02:29:18.288Z,21.51
2022-07-25T02:31:48.483Z,21.49
2022-07-25T02:34:15.045Z,21.48
2022-07-25T02:36:41.651Z,21.45
2022-07-25T02:39:08.183Z,21.44
2022-07-25T02:41:34.727Z,21.46
2022-07-25T02:44:01.396Z,21.45
2022-07-25T02:46:28.024Z,21.45
2022-07-25T02:48:54.693Z,21.41
2022-07-25T02:51:21.309Z,21.36
2022-07-25T02:53:57.064Z,21.34
2022-07-25T02:59:06.920Z,21.22
2022-07-25T03:01:33.627Z,21.25
2022-07-25T03:04:00.266Z,21.26
2022-07-25T03:06:26.874Z,21.30
2022-07-25T03:08:53.427Z,21.32
2022-07-25T03:11:20.832Z,21.35
2022-07-25T03:13:47.401Z,21.38
2022-07-25T03:16:14.405Z,21.39
2022-07-25T03:18:40.970Z,21.46
2022-07-25T03:21:07.901Z,21.51
2022-07-25T03:23:34.891Z,21.55
2022-07-25T03:26:01.452Z,21.54
2022-07-25T03:28:27.986Z,21.50
2022-07-25T03:30:55.158Z,21.53
2022-07-25T03:33:21.813Z,21.43
2022-07-25T03:35:48.325Z,21.47
2022-07-25T03:38:14.939Z,21.44
2022-07-25T03:40:41.478Z,21.41
2022-07-25T03:43:08.000Z,21.36
2022-07-25T03:45:34.793Z,21.38
2022-07-25T03:48:01.374Z,21.28
2022-07-25T03:50:28.269Z,21.20
2022-07-25T03:52:54.765Z,21.13
2022-07-25T03:55:21.361Z,21.13
2022-07-25T03:57:47.989Z,21.04
2022-07-25T04:00:14.818Z,21.04
2022-07-25T04:02:41.704Z,21.02
2022-07-25T04:05:09.440Z,20.99
2022-07-25T04:07:36.701Z,20.92
2022-07-25T04:10:05.372Z,20.88
2022-07-25T04:12:31.975Z,20.69
2022-07-25T04:17:39.471Z,20.52
2022-07-25T04:20:07.387Z,20.52
2022-07-25T04:22:34.275Z,20.57
2022-07-25T04:25:00.996Z,20.53
2022-07-25T04:27:27.546Z,20.57
2022-07-25T04:29:54.541Z,20.58
2022-07-25T04:32:23.477Z,20.62
2022-07-25T04:34:52.301Z,20.62
2022-07-25T04:37:18.849Z,20.58
2022-07-25T04:39:45.408Z,20.58
2022-07-25T04:42:12.024Z,20.64
2022-07-25T04:44:38.555Z,20.66
2022-07-25T04:47:05.478Z,20.70
2022-07-25T04:49:32.160Z,20.72
2022-07-25T04:51:58.688Z,20.73
2022-07-25T04:54:25.196Z,20.86
2022-07-25T04:56:51.709Z,20.90
2022-07-25T04:59:18.271Z,20.93
2022-07-25T05:01:44.811Z,20.92
2022-07-25T05:04:11.382Z,20.91
2022-07-25T05:06:37.957Z,20.95
2022-07-25T05:09:04.597Z,20.95
2022-07-25T05:11:31.155Z,20.89
2022-07-25T05:13:57.703Z,20.98
2022-07-25T05:16:24.280Z,20.92
2022-07-25T05:18:50.934Z,20.88
2022-07-25T05:21:17.486Z,20.99
2022-07-25T05:23:44.191Z,20.92
2022-07-25T05:26:10.782Z,20.91
2022-07-25T05:28:37.320Z,20.84
2022-07-25T05:31:04.112Z,20.86
2022-07-25T05:33:30.720Z,20.84
2022-07-25T05:35:57.245Z,20.83
2022-07-25T05:38:23.915Z,20.80
2022-07-25T05:40:52.226Z,20.91
2022-07-25T05:43:19.213Z,20.93
2022-07-25T05:45:47.461Z,20.94
2022-07-25T05:48:15.032Z,20.99
2022-07-25T05:50:41.771Z,21.11
2022-07-25T05:53:08.364Z,21.23
2022-07-25T05:55:34.970Z,21.29
2022-07-25T05:58:06.789Z,21.24
2022-07-25T06:00:33.414Z,21.08
2022-07-25T06:03:00.636Z,20.98
2022-07-25T06:05:27.612Z,20.86
2022-07-25T06:07:54.341Z,20.77
2022-07-25T06:10:21.359Z,20.72
2022-07-25T06:12:47.943Z,20.75
2022-07-25T06:15:22.558Z,20.57
2022-07-25T06:17:49.838Z,20.68
2022-07-25T06:20:16.344Z,20.68
2022-07-25T06:22:42.902Z,20.81
2022-07-25T06:25:09.803Z,20.91
2022-07-25T06:27:37.967Z,20.93
2022-07-25T06:30:06.605Z,20.86
2022-07-25T06:32:37.866Z,20.80
2022-07-25T06:35:04.654Z,20.74
2022-07-25T06:37:31.280Z,20.69
2022-07-25T06:39:57.822Z,20.70
2022-07-25T06:42:25.353Z,20.75
2022-07-25T06:44:52.136Z,20.82
2022-07-25T06:47:18.811Z,21.07
2022-07-25T06:49:45.414Z,21.13
2022-07-25T06:52:12.098Z,21.11
2022-07-25T06:54:38.932Z,21.02
2022-07-25T06:57:05.516Z,21.10
2022-07-25T06:59:33.239Z,20.87
2022-07-25T07:02:00.070Z,20.77
2022-07-25T07:04:26.626Z,20.94
2022-07-25T07:06:53.128Z,20.95
2022-07-25T07:09:19.669Z,20.98
2022-07-25T07:11:49.224Z,20.83
2022-07-25T07:14:15.743Z,20.96
2022-07-25T07:16:42.528Z,20.94
2022-07-25T07:19:11.054Z,21.02
2022-07-25T07:21:37.788Z,21.22
2022-07-25T07:24:04.409Z,21.14
2022-07-25T07:26:50.359Z,21.28
2022-07-25T07:29:16.879Z,21.11
2022-07-25T07:31:43.430Z,21.16
2022-07-25T07:34:10.193Z,21.10
2022-07-25T07:36:40.934Z,21.01
2022-07-25T07:39:08.175Z,21.12
2022-07-25T07:41:34.974Z,21.08
2022-07-25T07:44:01.536Z,21.46
2022-07-25T07:46:28.129Z,21.58
2022-07-25T07:48:54.826Z,21.69
2022-07-25T07:51:21.458Z,21.79
2022-07-25T07:54:10.911Z,21.61
2022-07-25T07:56:37.614Z,21.77
2022-07-25T07:59:05.396Z,21.89
2022-07-25T08:01:32.405Z,21.70
2022-07-25T08:03:58.960Z,21.68
2022-07-25T08:06:27.699Z,21.84
2022-07-25T08:08:54.294Z,22.05
2022-07-25T08:11:20.827Z,22.28
2022-07-25T08:13:47.410Z,22.36
2022-07-25T08:16:14.116Z,22.51
2022-07-25T08:18:40.690Z,22.46
2022-07-25T08:21:07.262Z,22.43
2022-07-25T08:23:35.539Z,22.56
2022-07-25T08:26:02.564Z,22.71
2022-07-25T08:28:29.131Z,22.83
2022-07-25T08:30:55.948Z,22.87
2022-07-25T08:33:22.540Z,23.13
2022-07-25T08:35:54.768Z,23.65
2022-07-25T08:38:22.904Z,23.59
2022-07-25T08:40:50.707Z,23.55
2022-07-25T08:43:19.109Z,23.48
2022-07-25T08:45:47.515Z,23.29
2022-07-25T08:48:14.662Z,23.16
2022-07-25T08:50:41.264Z,23.27
2022-07-25T08:53:32.151Z,22.83
2022-07-25T08:55:55.060Z,22.73
2022-07-25T08:58:21.644Z,22.54
2022-07-25T09:00:48.177Z,22.60
2022-07-25T09:03:14.842Z,22.28
2022-07-25T09:05:42.664Z,22.18
2022-07-25T09:08:17.532Z,22.13
2022-07-25T09:10:51.834Z,21.93
2022-07-25T09:13:20.110Z,21.83
2022-07-25T09:15:52.057Z,21.65
2022-07-25T09:18:23.041Z,21.68
2022-07-25T09:20:54.873Z,22.14
2022-07-25T09:23:27.815Z,22.47
2022-07-25T09:26:11.131Z,22.80
2022-07-25T09:28:44.822Z,22.91
2022-07-25T09:31:11.979Z,23.49
2022-07-25T09:34:08.518Z,23.85
2022-07-25T09:36:35.640Z,23.44
2022-07-25T09:39:03.048Z,23.57
2022-07-25T09:41:36.918Z,23.16
2022-07-25T09:44:04.299Z,23.37
2022-07-25T09:46:32.588Z,23.76
2022-07-25T09:49:00.234Z,23.95
2022-07-25T09:51:27.734Z,24.27
2022-07-25T09:53:54.729Z,25.10
2022-07-25T09:56:21.262Z,24.56
2022-07-25T09:58:47.935Z,23.77
2022-07-25T10:01:19.931Z,23.23
2022-07-25T10:04:22.559Z,22.76
2022-07-25T10:07:01.530Z,22.94
2022-07-25T10:09:28.180Z,22.88
2022-07-25T10:12:05.980Z,22.51
2022-07-25T10:14:33.766Z,22.33
2022-07-25T10:17:01.820Z,22.23
2022-07-25T10:19:50.814Z,22.21
2022-07-25T10:22:34.323Z,21.91
2022-07-25T10:25:17.370Z,22.05
2022-07-25T10:28:01.162Z,22.03
2022-07-25T10:30:36.251Z,22.18
2022-07-25T10:33:04.297Z,22.18
2022-07-25T10:35:31.256Z,22.33
2022-07-25T10:37:59.087Z,22.31
2022-07-25T10:40:30.168Z,22.15
2022-07-25T10:43:00.824Z,22.11
2022-07-25T10:45:38.503Z,21.87
2022-07-25T10:48:10.386Z,21.96
2022-07-25T10:50:55.809Z,21.90
2022-07-25T10:53:39.636Z,22.04
2022-07-25T10:56:17.856Z,22.18
2022-07-25T10:58:47.364Z,22.46
2022-07-25T11:01:14.991Z,22.35
2022-07-25T11:03:45.126Z,22.02
2022-07-25T11:06:15.468Z,21.81
2022-07-25T11:08:43.628Z,21.89
2022-07-25T11:11:11.015Z,22.14
2022-07-25T11:13:44.363Z,22.60
2022-07-25T11:16:11.055Z,22.68
2022-07-25T11:18:39.559Z,22.66
2022-07-25T11:21:07.947Z,22.79
2022-07-25T11:23:35.530Z,22.68
2022-07-25T11:26:12.697Z,23.44
2022-07-25T11:28:40.825Z,23.98
2022-07-25T11:31:07.480Z,23.91
2022-07-25T11:33:38.669Z,24.10
2022-07-25T11:36:06.240Z,24.37
2022-07-25T11:38:33.321Z,24.48
2022-07-25T11:41:00.160Z,24.32
2022-07-25T11:43:26.741Z,25.29
2022-07-25T11:46:02.923Z,24.81
2022-07-25T11:48:32.444Z,24.69
2022-07-25T11:51:08.921Z,23.74
2022-07-25T11:53:45.025Z,23.90
2022-07-25T11:56:40.863Z,24.76
2022-07-25T11:59:03.636Z,24.53
2022-07-25T12:01:37.853Z,25.26
2022-07-25T12:04:17.654Z,25.23
2022-07-25T12:06:48.837Z,24.87
2022-07-25T12:09:19.138Z,24.93
2022-07-25T12:11:47.225Z,25.45
2022-07-25T12:14:13.959Z,25.67
2022-07-25T12:16:40.765Z,24.85
2022-07-25T12:19:19.402Z,24.97
2022-07-25T12:21:46.576Z,24.96
2022-07-25T12:24:13.393Z,25.69
2022-07-25T12:26:40.003Z,25.77
2022-07-25T12:29:06.790Z,25.93
2022-07-25T12:31:33.770Z,25.79
2022-07-25T12:34:00.330Z,25.64
2022-07-25T12:36:26.927Z,25.54
2022-07-25T12:38:53.541Z,25.26
2022-07-25T12:41:22.736Z,24.70
2022-07-25T12:43:49.845Z,23.97
2022-07-25T12:46:16.886Z,25.25
2022-07-25T12:48:44.064Z,24.99
2022-07-25T12:51:10.979Z,24.89
2022-07-25T12:53:41.973Z,24.65
2022-07-25T12:56:09.305Z,24.83
2022-07-25T12:58:36.885Z,25.07
2022-07-25T13:01:05.670Z,24.77
2022-07-25T13:03:32.257Z,24.71
2022-07-25T13:05:59.430Z,24.30
2022-07-25T13:08:26.024Z,24.82
2022-07-25T13:10:52.543Z,25.81
2022-07-25T13:13:19.181Z,25.75
2022-07-25T13:15:45.765Z,25.75
2022-07-25T13:18:12.562Z,26.00
2022-07-25T13:20:39.220Z,26.28
2022-07-25T13:23:05.971Z,25.88
2022-07-25T13:25:33.827Z,25.11
2022-07-25T13:28:00.320Z,25.84
2022-07-25T13:30:26.917Z,25.85
2022-07-25T13:32:53.451Z,25.61
2022-07-25T13:35:21.408Z,25.64
2022-07-25T13:37:49.114Z,25.91
2022-07-25T13:40:15.666Z,25.69
2022-07-25T13:42:42.531Z,25.53
2022-07-25T13:45:09.862Z,25.84
2022-07-25T13:47:36.722Z,25.57
2022-07-25T13:50:03.522Z,25.29
2022-07-25T13:52:30.085Z,25.83
2022-07-25T13:54:56.644Z,25.89
2022-07-25T13:57:23.193Z,25.60
2022-07-25T13:59:49.735Z,24.97
2022-07-25T14:02:16.480Z,25.44
2022-07-25T14:04:43.107Z,24.92
2022-07-25T14:07:09.643Z,24.89
2022-07-25T14:09:36.184Z,24.61
2022-07-25T14:12:03.058Z,24.75
2022-07-25T14:14:29.634Z,24.70
2022-07-25T14:16:56.409Z,25.06
2022-07-25T14:19:24.137Z,25.69
2022-07-25T14:21:50.706Z,24.92
2022-07-25T14:24:17.296Z,24.68
2022-07-25T14:26:43.912Z,25.62
2022-07-25T14:29:11.335Z,25.57
2022-07-25T14:31:39.581Z,25.87
2022-07-25T14:34:06.703Z,26.76
2022-07-25T14:36:33.678Z,25.71
2022-07-25T14:39:00.300Z,26.34
2022-07-25T14:41:27.037Z,26.09
2022-07-25T14:43:53.830Z,26.60
2022-07-25T14:46:20.639Z,26.25
2022-07-25T14:48:47.652Z,26.48
2022-07-25T14:51:14.236Z,26.53
2022-07-25T14:53:40.878Z,26.02
2022-07-25T14:56:07.743Z,25.68
2022-07-25T14:58:34.669Z,26.18
2022-07-25T15:01:01.633Z,25.79
2022-07-25T15:03:28.233Z,24.92
2022-07-25T15:05:54.824Z,24.35
2022-07-25T15:08:21.532Z,24.25
2022-07-25T15:10:48.323Z,25.09
2022-07-25T15:13:30.623Z,25.03
2022-07-25T15:15:58.990Z,23.91
2022-07-25T15:18:25.754Z,23.60
2022-07-25T15:20:52.461Z,23.53
2022-07-25T15:23:20.905Z,23.89
2022-07-25T15:26:04.405Z,24.00
2022-07-25T15:28:35.653Z,23.94
2022-07-25T15:31:02.812Z,24.33
2022-07-25T15:33:29.620Z,25.18
2022-07-25T15:35:56.225Z,24.81
2022-07-25T15:38:22.995Z,24.48
2022-07-25T15:40:49.637Z,24.84
2022-07-25T15:43:16.160Z,24.48
2022-07-25T15:45:45.952Z,24.13
2022-07-25T15:48:13.762Z,24.48
2022-07-25T15:50:45.418Z,23.78
2022-07-25T15:53:12.535Z,23.43
2022-07-25T15:55:40.355Z,23.27
2022-07-25T15:58:07.586Z,23.77
2022-07-25T16:00:34.179Z,24.01
2022-07-25T16:03:00.955Z,24.31
2022-07-25T16:05:28.395Z,24.78
2022-07-25T16:07:55.367Z,23.88
2022-07-25T16:10:21.925Z,23.13
2022-07-25T16:12:48.802Z,22.60
2022-07-25T16:15:16.090Z,22.00
2022-07-25T16:17:42.772Z,21.90
2022-07-25T16:20:10.849Z,21.91
2022-07-25T16:22:37.980Z,21.73
2022-07-25T16:25:05.362Z,21.62
2022-07-25T16:27:32.050Z,21.65
2022-07-25T16:29:58.671Z,21.61
2022-07-25T16:32:25.511Z,21.28
2022-07-25T16:34:52.380Z,21.25
2022-07-25T16:37:19.859Z,20.92
2022-07-25T16:39:46.562Z,20.84
2022-07-25T16:42:13.095Z,20.87
2022-07-25T16:44:39.859Z,20.71
2022-07-25T16:47:07.267Z,20.75
2022-07-25T16:49:34.060Z,20.85
2022-07-25T16:52:00.597Z,20.78
2022-07-25T16:54:27.213Z,20.70
2022-07-25T16:56:57.276Z,20.70
2022-07-25T16:59:26.041Z,20.83
2022-07-25T17:01:52.681Z,20.70
2022-07-25T17:04:19.309Z,20.51
2022-07-25T17:06:45.957Z,20.53
2022-07-25T17:09:12.571Z,20.49
2022-07-25T17:11:39.137Z,20.56
2022-07-25T17:14:05.892Z,20.64
2022-07-25T17:16:32.797Z,20.65
2022-07-25T17:18:59.447Z,20.52
2022-07-25T17:21:25.965Z,20.45
2022-07-25T17:23:53.255Z,20.47
2022-07-25T17:26:20.646Z,20.39
2022-07-25T17:28:47.436Z,20.44
2022-07-25T17:31:14.771Z,20.44
2022-07-25T17:33:41.427Z,20.33
2022-07-25T17:36:08.307Z,20.13
2022-07-25T17:38:35.292Z,20.11
2022-07-25T17:41:02.251Z,20.26
2022-07-25T17:43:29.156Z,20.35
2022-07-25T17:45:56.426Z,20.43
2022-07-25T17:48:23.175Z,20.06
2022-07-25T17:50:49.777Z,20.20
2022-07-25T17:53:18.110Z,20.08
2022-07-25T17:55:45.377Z,20.12
2022-07-25T17:58:12.217Z,20.17
2022-07-25T18:00:39.107Z,20.18
2022-07-25T18:03:05.927Z,20.21
2022-07-25T18:05:32.910Z,20.25
2022-07-25T18:07:59.554Z,20.32
2022-07-25T18:10:26.185Z,20.38
2022-07-25T18:12:52.963Z,20.10
2022-07-25T18:15:19.632Z,20.08
2022-07-25T18:17:47.553Z,20.05
2022-07-25T18:20:16.186Z,19.95
2022-07-25T18:22:43.163Z,20.04
2022-07-25T18:25:11.486Z,20.08
2022-07-25T18:27:43.107Z,20.51
2022-07-25T18:30:10.715Z,20.75
2022-07-25T18:32:38.084Z,20.83
2022-07-25T18:35:05.541Z,20.72
2022-07-25T18:37:32.267Z,20.53
2022-07-25T18:39:58.808Z,20.38
2022-07-25T18:42:29.727Z,20.21
2022-07-25T18:44:57.111Z,20.21
2022-07-25T18:47:26.383Z,20.28
2022-07-25T18:49:58.977Z,19.99
2022-07-25T18:52:25.661Z,19.87
2022-07-25T18:54:52.273Z,19.78
2022-07-25T18:57:18.961Z,19.72
2022-07-25T18:59:45.770Z,19.75
2022-07-25T19:02:12.435Z,19.71
2022-07-25T19:04:39.032Z,19.63
2022-07-25T19:07:05.608Z,19.63
2022-07-25T19:09:32.129Z,19.66
2022-07-25T19:11:58.752Z,19.64
2022-07-25T19:14:27.315Z,19.53
2022-07-25T19:16:54.458Z,19.55
2022-07-25T19:19:21.069Z,19.53
2022-07-25T19:21:47.666Z,19.49
2022-07-25T19:24:14.316Z,19.40
2022-07-25T19:26:41.430Z,19.32
2022-07-25T19:29:09.220Z,19.30
2022-07-25T19:31:38.201Z,19.32
2022-07-25T19:34:06.425Z,19.28
2022-07-25T19:36:33.693Z,19.29
2022-07-25T19:39:00.658Z,19.31
2022-07-25T19:41:27.573Z,19.26
2022-07-25T19:43:54.829Z,19.22
2022-07-25T19:46:21.571Z,19.14
2022-07-25T19:48:48.574Z,19.14
2022-07-25T19:51:15.249Z,19.07
2022-07-25T19:53:41.929Z,19.09
2022-07-25T19:56:09.217Z,19.03
2022-07-25T19:58:38.968Z,19.04
2022-07-25T20:01:07.762Z,19.02
2022-07-25T20:03:34.908Z,18.93
2022-07-25T20:06:06.054Z,18.89
2022-07-25T20:08:34.578Z,18.95
2022-07-25T20:11:01.099Z,18.94
2022-07-25T20:13:29.658Z,18.89
2022-07-25T20:15:56.296Z,18.96
2022-07-25T20:18:22.827Z,18.96
2022-07-25T20:20:49.404Z,18.96
2022-07-25T20:23:16.016Z,19.02
2022-07-25T20:25:42.613Z,19.01
2022-07-25T20:28:09.161Z,19.03
2022-07-25T20:30:35.732Z,18.98
2022-07-25T20:33:08.923Z,18.99
2022-07-25T20:35:37.049Z,18.98
2022-07-25T20:38:03.697Z,19.02
2022-07-25T20:40:36.155Z,19.01
2022-07-25T20:43:04.406Z,19.03
2022-07-25T20:45:31.000Z,19.01
2022-07-25T20:47:57.778Z,19.06
2022-07-25T20:50:24.350Z,19.00
2022-07-25T20:52:51.059Z,19.09
2022-07-25T20:55:17.574Z,19.07
2022-07-25T20:57:48.660Z,19.11
2022-07-25T21:00:17.075Z,19.12
2022-07-25T21:02:43.717Z,19.18
2022-07-25T21:05:10.345Z,19.21
2022-07-25T21:07:36.888Z,19.23
2022-07-25T21:10:04.583Z,19.25
2022-07-25T21:12:32.991Z,19.20
2022-07-25T21:15:01.114Z,19.23
2022-07-25T21:17:27.763Z,19.23
2022-07-25T21:19:54.362Z,19.23
2022-07-25T21:22:21.083Z,19.33
2022-07-25T21:24:49.607Z,19.40
2022-07-25T21:27:17.462Z,19.39
2022-07-25T21:29:44.310Z,19.32
2022-07-25T21:32:13.668Z,19.34
2022-07-25T21:34:41.522Z,19.37
2022-07-25T21:37:08.175Z,19.25
2022-07-25T21:39:34.712Z,19.32
2022-07-25T21:42:01.592Z,19.32
2022-07-25T21:44:28.143Z,19.30
2022-07-25T21:46:54.638Z,19.32
2022-07-25T21:49:42.013Z,19.38
2022-07-25T21:52:14.011Z,19.36
2022-07-25T21:54:41.753Z,19.41
2022-07-25T21:57:13.525Z,19.36
2022-07-25T21:59:44.697Z,19.40
2022-07-25T22:02:11.732Z,19.37
2022-07-25T22:04:38.417Z,19.40
2022-07-25T22:07:05.555Z,19.46
2022-07-25T22:09:32.114Z,19.48
2022-07-25T22:11:58.963Z,19.48
2022-07-25T22:14:25.875Z,19.50
2022-07-25T22:16:53.129Z,19.50
2022-07-25T22:19:22.477Z,19.52
2022-07-25T22:21:50.221Z,19.44
2022-07-25T22:24:17.077Z,19.41
2022-07-25T22:26:43.687Z,19.47
2022-07-25T22:29:11.079Z,19.51
2022-07-25T22:31:40.844Z,19.46
2022-07-25T22:34:07.637Z,19.50
2022-07-25T22:36:34.234Z,19.55
2022-07-25T22:39:00.753Z,19.51
2022-07-25T22:41:27.797Z,19.55
2022-07-25T22:43:57.628Z,19.52
2022-07-25T22:46:28.328Z,19.54
2022-07-25T22:48:55.256Z,19.57
2022-07-25T22:51:22.298Z,19.52
2022-07-25T22:53:48.924Z,19.51
2022-07-25T22:56:16.932Z,19.47
2022-07-25T22:58:43.499Z,19.52
2022-07-25T23:01:10.908Z,19.52
2022-07-25T23:03:37.765Z,19.54
2022-07-25T23:06:04.495Z,19.54
2022-07-25T23:08:31.059Z,19.55
2022-07-25T23:10:57.577Z,19.59
2022-07-25T23:13:24.213Z,19.60
2022-07-25T23:15:51.485Z,19.57
2022-07-25T23:18:19.541Z,19.60
2022-07-25T23:20:46.283Z,19.63
2022-07-25T23:23:12.996Z,19.61
2022-07-25T23:25:39.515Z,19.61
2022-07-25T23:28:06.101Z,19.63
2022-07-25T23:30:36.697Z,19.62
2022-07-25T23:33:06.905Z,19.60
2022-07-25T23:35:33.807Z,19.58
2022-07-25T23:38:00.410Z,19.51
2022-07-25T23:40:27.189Z,19.50
2022-07-25T23:42:54.394Z,19.51
2022-07-25T23:45:21.759Z,19.51
2022-07-25T23:47:50.795Z,19.48
2022-07-25T23:50:18.347Z,19.48
2022-07-25T23:52:44.838Z,19.48
2022-07-25T23:55:11.462Z,19.51
2022-07-25T23:57:37.979Z,19.46
